x

Keaton Beach, Fl (ktnf1) Weather Station

2:00pm - Mon 22nd May 2017 All times are EDT. -4 hours from GMT.

  • Wind
    9mph, 11mph gusts
  • Air Temp 80°f
  • Sea Pressure 1016.1mb
  • Keaton Beach, Fl
  • Keaton Beach, Fl

More Historic Weather Station data

Upgrade to MSW Pro to gain access to the past 30 days of data for over 8000 Wavebouys and Weather Stations around the globe.

Join Pro

Comparision Forecast

View Surf forecast
   
Mon 05/22 2:00pm 9 11 mph 1016.1mb 80f
1:00pm 13 15 mph 1017.3mb 79f
12:00pm 8 10 mph 1017.8mb 79f
11:00am 8 10 mph 1017.8mb 79f
10:00am 7 8 mph 1018mb 79f
9:00am 3 3 mph 1017.8mb 77f
8:00am 5 6 mph 1017.4mb 72f
7:00am 8 9 mph 1017.2mb 71f
6:00am 2 3 mph 1017.3mb 71f
5:00am 5 6 mph 1017.3mb 72f
4:00am 6 7 mph 1017.4mb 72f
3:00am 8 8 mph 1017.7mb 72f
2:00am 3 3 mph 1018mb 73f
1:00am 2 3 mph 1018.1mb 73f
12:00am 3 3 mph 1018.7mb 74f
Sun 05/21 11:00pm  -  1 mph 1018.9mb 78f
10:00pm 2 3 mph 1018.9mb 78f
9:00pm 6 7 mph 1018.4mb 79f
8:00pm 3 5 mph 1017.2mb 80f
7:00pm 6 7 mph 1017mb 80f
6:00pm 7 8 mph 1017.2mb 80f
5:00pm 5 6 mph 1017.7mb 79f
4:00pm 5 7 mph 1018.5mb 79f
3:00pm 9 10 mph 1018.8mb 79f
2:00pm 13 15 mph 1019mb 79f
1:00pm 8 8 mph 1019.1mb 78f
12:00pm 9 10 mph 1019.7mb 74f
11:00am 8 9 mph 1020.6mb 75f
10:00am 2 2 mph 1020.2mb 73f
9:00am 3 6 mph 1020.5mb 70f
8:00am 9 14 mph 1020.4mb 69f
7:00am 10 13 mph 1019.9mb 80f
6:00am 11 14 mph 1019mb 80f
5:00am 10 13 mph 1018.3mb 80f
4:00am 13 14 mph 1018.3mb 80f
3:00am 13 15 mph 1018.4mb 81f
2:00am 3 5 mph 1018.4mb 78f
1:00am 5 6 mph 1018.8mb 79f
12:00am 3 3 mph 1018.1mb 77f
Sat 05/20 11:00pm 8 8 mph 1018mb 78f
10:00pm 5 6 mph 1017mb 80f
9:00pm 6 7 mph 1016.5mb 81f
8:00pm 8 9 mph 1016.7mb 81f
7:00pm 13 15 mph 1016.3mb 82f
6:00pm 14 15 mph 1016.3mb 82f
5:00pm 10 13 mph 1016.4mb 82f
4:00pm 15 16 mph 1016.7mb 82f
3:00pm 15 17 mph 1017.4mb 81f
2:00pm 14 16 mph 1018.3mb 81f
1:00pm 14 15 mph 1018.7mb 81f
12:00pm 14 16 mph 1018.7mb 81f
11:00am 7 9 mph 1018.4mb 81f
10:00am 10 13 mph 1018.4mb 80f
9:00am 10 13 mph 1018.1mb 78f
8:00am 10 11 mph 1017.7mb 76f
7:00am 9 10 mph 1017.1mb 75f
6:00am 7 8 mph 1016.5mb 75f
5:00am 6 7 mph 1016.1mb 76f
4:00am 15 18 mph 1015.7mb 76f
3:00am 6 8 mph 1016.3mb 76f
2:00am 13 16 mph 1016.4mb 76f
1:00am 11 14 mph 1017mb 76f
12:00am 9 11 mph 1016.8mb 77f
Fri 05/19 11:00pm 13 16 mph 1016.7mb 77f
10:00pm 11 13 mph 1016.4mb 78f
9:00pm 11 13 mph 1015.9mb 79f
8:00pm 3 5 mph 1015.4mb 81f
7:00pm 5 7 mph 1015.2mb 80f
6:00pm 2 3 mph 1015.7mb 82f
5:00pm 10 11 mph 1015.1mb 81f
4:00pm 8 9 mph 1015.7mb 81f
3:00pm 6 7 mph 1016.4mb 81f
2:00pm 8 8 mph 1016.8mb 81f
1:00pm 9 10 mph 1017.3mb 81f
12:00pm 7 9 mph 1018mb 82f
11:00am 3 5 mph 1018.2mb 81f
10:00am 10 13 mph 1018.4mb 77f
9:00am 10 13 mph 1018.5mb 72f
8:00am 9 11 mph 1018.1mb 69f
7:00am 3 5 mph 1017.7mb 67f
6:00am 6 7 mph 1016.7mb 68f
5:00am 6 7 mph 1016.5mb 68f
4:00am 8 9 mph 1016.3mb 69f
3:00am 8 9 mph 1016.2mb 70f
2:00am 10 13 mph 1016.5mb 72f
1:00am 10 13 mph 1017.4mb 74f
12:00am 11 14 mph 1017.5mb 77f
Thu 05/18 11:00pm 11 14 mph 1017.5mb 79f
10:00pm 8 9 mph 1016.8mb 80f
9:00pm 6 8 mph 1016.3mb 81f
8:00pm 7 9 mph 1015.4mb 82f